sensor_id;sensor_type;location;lat;lon;timestamp;P1;durP1;ratioP1;P2;durP2;ratioP2
48367;SDS011;34173;47.446;18.912;2022-09-27T00:01:06;14.30;;;8.75;;
48367;SDS011;34173;47.446;18.912;2022-09-27T00:03:36;11.95;;;7.93;;
48367;SDS011;34173;47.446;18.912;2022-09-27T00:06:23;10.95;;;7.68;;
48367;SDS011;34173;47.446;18.912;2022-09-27T00:08:52;13.02;;;7.55;;
48367;SDS011;34173;47.446;18.912;2022-09-27T00:11:34;12.02;;;7.62;;
48367;SDS011;34173;47.446;18.912;2022-09-27T00:14:03;11.50;;;7.43;;
48367;SDS011;34173;47.446;18.912;2022-09-27T00:16:32;12.32;;;7.45;;
48367;SDS011;34173;47.446;18.912;2022-09-27T00:19:03;13.07;;;7.53;;
48367;SDS011;34173;47.446;18.912;2022-09-27T00:21:32;11.68;;;8.05;;
48367;SDS011;34173;47.446;18.912;2022-09-27T00:24:00;10.00;;;7.37;;
48367;SDS011;34173;47.446;18.912;2022-09-27T00:26:28;11.43;;;8.00;;
48367;SDS011;34173;47.446;18.912;2022-09-27T00:28:56;12.07;;;7.30;;
48367;SDS011;34173;47.446;18.912;2022-09-27T00:31:25;10.88;;;7.68;;
48367;SDS011;34173;47.446;18.912;2022-09-27T00:34:00;12.00;;;7.80;;
48367;SDS011;34173;47.446;18.912;2022-09-27T00:36:28;14.35;;;8.15;;
48367;SDS011;34173;47.446;18.912;2022-09-27T00:38:57;13.20;;;8.48;;
48367;SDS011;34173;47.446;18.912;2022-09-27T00:41:29;11.00;;;6.85;;
48367;SDS011;34173;47.446;18.912;2022-09-27T00:44:50;10.93;;;7.37;;
48367;SDS011;34173;47.446;18.912;2022-09-27T00:47:16;12.30;;;8.23;;
48367;SDS011;34173;47.446;18.912;2022-09-27T00:49:42;12.37;;;8.32;;
48367;SDS011;34173;47.446;18.912;2022-09-27T00:52:19;12.93;;;8.35;;
48367;SDS011;34173;47.446;18.912;2022-09-27T00:54:51;12.73;;;8.18;;
48367;SDS011;34173;47.446;18.912;2022-09-27T00:57:22;13.77;;;8.10;;
48367;SDS011;34173;47.446;18.912;2022-09-27T00:59:52;12.35;;;6.97;;
48367;SDS011;34173;47.446;18.912;2022-09-27T01:02:24;11.38;;;7.95;;
48367;SDS011;34173;47.446;18.912;2022-09-27T01:04:52;12.35;;;7.68;;
48367;SDS011;34173;47.446;18.912;2022-09-27T01:07:21;10.55;;;7.20;;
48367;SDS011;34173;47.446;18.912;2022-09-27T01:09:49;11.88;;;7.60;;
48367;SDS011;34173;47.446;18.912;2022-09-27T01:12:37;11.02;;;7.03;;
48367;SDS011;34173;47.446;18.912;2022-09-27T01:23:39;11.20;;;7.22;;
48367;SDS011;34173;47.446;18.912;2022-09-27T01:26:22;11.55;;;7.87;;
48367;SDS011;34173;47.446;18.912;2022-09-27T01:29:03;13.82;;;8.20;;
48367;SDS011;34173;47.446;18.912;2022-09-27T01:34:10;13.13;;;7.80;;
48367;SDS011;34173;47.446;18.912;2022-09-27T01:39:48;10.55;;;7.57;;
48367;SDS011;34173;47.446;18.912;2022-09-27T01:42:26;11.10;;;7.82;;
48367;SDS011;34173;47.446;18.912;2022-09-27T01:45:35;14.57;;;8.13;;
48367;SDS011;34173;47.446;18.912;2022-09-27T01:48:08;13.35;;;7.90;;
48367;SDS011;34173;47.446;18.912;2022-09-27T01:50:40;11.35;;;7.85;;
48367;SDS011;34173;47.446;18.912;2022-09-27T01:53:14;10.60;;;7.43;;
48367;SDS011;34173;47.446;18.912;2022-09-27T01:58:32;10.43;;;7.47;;
48367;SDS011;34173;47.446;18.912;2022-09-27T02:01:08;12.13;;;7.78;;
48367;SDS011;34173;47.446;18.912;2022-09-27T02:03:39;9.70;;;7.18;;
48367;SDS011;34173;47.446;18.912;2022-09-27T02:06:12;10.77;;;7.62;;
48367;SDS011;34173;47.446;18.912;2022-09-27T02:08:45;13.30;;;7.85;;
48367;SDS011;34173;47.446;18.912;2022-09-27T02:11:15;11.98;;;7.57;;
48367;SDS011;34173;47.446;18.912;2022-09-27T02:13:46;10.70;;;7.90;;
48367;SDS011;34173;47.446;18.912;2022-09-27T02:19:17;10.90;;;7.32;;
48367;SDS011;34173;47.446;18.912;2022-09-27T02:24:23;13.40;;;8.77;;
48367;SDS011;34173;47.446;18.912;2022-09-27T02:27:01;13.95;;;8.23;;
48367;SDS011;34173;47.446;18.912;2022-09-27T02:29:36;14.93;;;8.52;;
48367;SDS011;34173;47.446;18.912;2022-09-27T02:32:08;11.48;;;7.50;;
48367;SDS011;34173;47.446;18.912;2022-09-27T02:34:36;12.93;;;8.15;;
48367;SDS011;34173;47.446;18.912;2022-09-27T02:37:06;12.00;;;7.70;;
48367;SDS011;34173;47.446;18.912;2022-09-27T02:39:33;12.32;;;8.27;;
48367;SDS011;34173;47.446;18.912;2022-09-27T02:42:02;13.52;;;8.60;;
48367;SDS011;34173;47.446;18.912;2022-09-27T02:44:29;12.95;;;8.65;;
48367;SDS011;34173;47.446;18.912;2022-09-27T02:47:12;12.50;;;8.52;;
48367;SDS011;34173;47.446;18.912;2022-09-27T02:58:20;17.85;;;10.63;;
48367;SDS011;34173;47.446;18.912;2022-09-27T03:03:41;15.40;;;10.40;;
48367;SDS011;34173;47.446;18.912;2022-09-27T03:08:42;15.98;;;10.05;;
48367;SDS011;34173;47.446;18.912;2022-09-27T03:11:10;15.80;;;9.20;;
48367;SDS011;34173;47.446;18.912;2022-09-27T03:13:38;13.62;;;9.23;;
48367;SDS011;34173;47.446;18.912;2022-09-27T03:16:26;15.48;;;9.80;;
48367;SDS011;34173;47.446;18.912;2022-09-27T03:18:55;13.45;;;9.20;;
48367;SDS011;34173;47.446;18.912;2022-09-27T03:21:26;12.95;;;9.18;;
48367;SDS011;34173;47.446;18.912;2022-09-27T03:23:55;16.02;;;10.32;;
48367;SDS011;34173;47.446;18.912;2022-09-27T03:26:24;13.40;;;9.45;;
48367;SDS011;34173;47.446;18.912;2022-09-27T03:28:51;18.35;;;11.73;;
48367;SDS011;34173;47.446;18.912;2022-09-27T03:31:19;24.92;;;12.57;;
48367;SDS011;34173;47.446;18.912;2022-09-27T03:33:47;55.03;;;16.48;;
48367;SDS011;34173;47.446;18.912;2022-09-27T03:36:15;34.13;;;15.18;;
48367;SDS011;34173;47.446;18.912;2022-09-27T03:38:43;27.13;;;14.30;;
48367;SDS011;34173;47.446;18.912;2022-09-27T03:41:11;19.80;;;10.95;;
48367;SDS011;34173;47.446;18.912;2022-09-27T03:43:38;17.37;;;10.45;;
48367;SDS011;34173;47.446;18.912;2022-09-27T03:46:06;16.80;;;10.32;;
48367;SDS011;34173;47.446;18.912;2022-09-27T03:48:34;19.40;;;10.50;;
48367;SDS011;34173;47.446;18.912;2022-09-27T03:51:02;34.70;;;12.18;;
48367;SDS011;34173;47.446;18.912;2022-09-27T03:53:31;18.62;;;11.25;;
48367;SDS011;34173;47.446;18.912;2022-09-27T03:55:58;21.73;;;12.10;;
48367;SDS011;34173;47.446;18.912;2022-09-27T03:58:26;35.35;;;12.43;;
48367;SDS011;34173;47.446;18.912;2022-09-27T04:00:54;36.58;;;14.40;;
48367;SDS011;34173;47.446;18.912;2022-09-27T04:03:22;42.92;;;14.87;;
48367;SDS011;34173;47.446;18.912;2022-09-27T04:05:54;43.15;;;14.75;;
48367;SDS011;34173;47.446;18.912;2022-09-27T04:08:24;32.10;;;14.55;;
48367;SDS011;34173;47.446;18.912;2022-09-27T04:10:51;25.00;;;13.98;;
48367;SDS011;34173;47.446;18.912;2022-09-27T04:13:19;26.42;;;12.77;;
48367;SDS011;34173;47.446;18.912;2022-09-27T04:15:48;22.73;;;11.88;;
48367;SDS011;34173;47.446;18.912;2022-09-27T04:18:20;22.50;;;13.10;;
48367;SDS011;34173;47.446;18.912;2022-09-27T04:20:48;28.73;;;14.15;;
48367;SDS011;34173;47.446;18.912;2022-09-27T04:23:17;27.23;;;14.02;;
48367;SDS011;34173;47.446;18.912;2022-09-27T04:25:47;36.50;;;15.07;;
48367;SDS011;34173;47.446;18.912;2022-09-27T04:28:15;20.95;;;13.50;;
48367;SDS011;34173;47.446;18.912;2022-09-27T04:30:44;20.20;;;12.85;;
48367;SDS011;34173;47.446;18.912;2022-09-27T04:33:14;22.73;;;13.85;;
48367;SDS011;34173;47.446;18.912;2022-09-27T04:35:43;22.83;;;14.25;;
48367;SDS011;34173;47.446;18.912;2022-09-27T04:38:30;28.38;;;13.70;;
48367;SDS011;34173;47.446;18.912;2022-09-27T04:40:58;46.40;;;17.40;;
48367;SDS011;34173;47.446;18.912;2022-09-27T04:43:30;60.42;;;14.98;;
48367;SDS011;34173;47.446;18.912;2022-09-27T04:45:58;26.73;;;14.18;;
48367;SDS011;34173;47.446;18.912;2022-09-27T04:48:26;26.15;;;15.50;;
48367;SDS011;34173;47.446;18.912;2022-09-27T04:51:00;27.23;;;13.98;;
48367;SDS011;34173;47.446;18.912;2022-09-27T04:53:31;25.48;;;14.32;;
48367;SDS011;34173;47.446;18.912;2022-09-27T04:55:59;33.60;;;18.55;;
48367;SDS011;34173;47.446;18.912;2022-09-27T04:58:33;53.50;;;21.00;;
48367;SDS011;34173;47.446;18.912;2022-09-27T05:01:01;32.05;;;18.35;;
48367;SDS011;34173;47.446;18.912;2022-09-27T05:03:32;45.50;;;17.33;;
48367;SDS011;34173;47.446;18.912;2022-09-27T05:06:00;55.38;;;17.92;;
48367;SDS011;34173;47.446;18.912;2022-09-27T05:08:27;53.08;;;17.08;;
48367;SDS011;34173;47.446;18.912;2022-09-27T05:10:57;24.05;;;14.73;;
48367;SDS011;34173;47.446;18.912;2022-09-27T05:13:25;60.25;;;16.92;;
48367;SDS011;34173;47.446;18.912;2022-09-27T05:15:53;30.10;;;15.50;;
48367;SDS011;34173;47.446;18.912;2022-09-27T05:18:23;39.92;;;16.08;;
48367;SDS011;34173;47.446;18.912;2022-09-27T05:20:54;38.10;;;16.30;;
48367;SDS011;34173;47.446;18.912;2022-09-27T05:23:23;30.33;;;17.50;;
48367;SDS011;34173;47.446;18.912;2022-09-27T05:25:51;36.40;;;16.15;;
48367;SDS011;34173;47.446;18.912;2022-09-27T05:28:22;32.03;;;16.95;;
48367;SDS011;34173;47.446;18.912;2022-09-27T05:30:50;33.85;;;16.08;;
48367;SDS011;34173;47.446;18.912;2022-09-27T05:33:18;33.72;;;15.85;;
48367;SDS011;34173;47.446;18.912;2022-09-27T05:35:52;74.55;;;19.60;;
48367;SDS011;34173;47.446;18.912;2022-09-27T05:38:21;70.90;;;21.17;;
48367;SDS011;34173;47.446;18.912;2022-09-27T05:40:49;48.40;;;19.62;;
48367;SDS011;34173;47.446;18.912;2022-09-27T05:43:18;73.95;;;20.05;;
48367;SDS011;34173;47.446;18.912;2022-09-27T05:45:48;90.62;;;20.73;;
48367;SDS011;34173;47.446;18.912;2022-09-27T05:48:16;73.43;;;20.58;;
48367;SDS011;34173;47.446;18.912;2022-09-27T05:50:44;59.67;;;19.80;;
48367;SDS011;34173;47.446;18.912;2022-09-27T05:53:12;73.03;;;21.87;;
48367;SDS011;34173;47.446;18.912;2022-09-27T05:55:40;73.97;;;21.75;;
48367;SDS011;34173;47.446;18.912;2022-09-27T05:58:10;42.67;;;20.33;;
48367;SDS011;34173;47.446;18.912;2022-09-27T06:00:42;71.25;;;22.35;;
48367;SDS011;34173;47.446;18.912;2022-09-27T06:03:14;59.47;;;23.45;;
48367;SDS011;34173;47.446;18.912;2022-09-27T06:05:45;72.37;;;24.00;;
48367;SDS011;34173;47.446;18.912;2022-09-27T06:08:18;62.90;;;23.58;;
48367;SDS011;34173;47.446;18.912;2022-09-27T06:10:48;58.60;;;25.25;;
48367;SDS011;34173;47.446;18.912;2022-09-27T06:13:16;42.78;;;24.23;;
48367;SDS011;34173;47.446;18.912;2022-09-27T06:15:45;63.78;;;26.25;;
48367;SDS011;34173;47.446;18.912;2022-09-27T06:18:14;60.83;;;25.40;;
48367;SDS011;34173;47.446;18.912;2022-09-27T06:20:45;54.92;;;25.52;;
48367;SDS011;34173;47.446;18.912;2022-09-27T06:23:14;50.63;;;26.27;;
48367;SDS011;34173;47.446;18.912;2022-09-27T06:25:46;65.65;;;27.85;;
48367;SDS011;34173;47.446;18.912;2022-09-27T06:28:15;54.03;;;26.17;;
48367;SDS011;34173;47.446;18.912;2022-09-27T06:30:45;53.20;;;27.30;;
48367;SDS011;34173;47.446;18.912;2022-09-27T06:33:16;29.20;;;17.02;;
48367;SDS011;34173;47.446;18.912;2022-09-27T06:35:46;58.65;;;26.55;;
48367;SDS011;34173;47.446;18.912;2022-09-27T06:38:17;48.95;;;26.05;;
48367;SDS011;34173;47.446;18.912;2022-09-27T06:40:45;46.83;;;26.08;;
48367;SDS011;34173;47.446;18.912;2022-09-27T06:43:14;45.92;;;26.67;;
48367;SDS011;34173;47.446;18.912;2022-09-27T06:45:43;43.00;;;25.45;;
48367;SDS011;34173;47.446;18.912;2022-09-27T06:50:46;47.08;;;25.92;;
48367;SDS011;34173;47.446;18.912;2022-09-27T06:53:15;46.37;;;24.67;;
48367;SDS011;34173;47.446;18.912;2022-09-27T06:55:43;47.92;;;26.55;;
48367;SDS011;34173;47.446;18.912;2022-09-27T06:58:11;48.25;;;25.12;;
48367;SDS011;34173;47.446;18.912;2022-09-27T07:01:00;43.65;;;25.52;;
48367;SDS011;34173;47.446;18.912;2022-09-27T07:03:31;44.20;;;25.77;;
48367;SDS011;34173;47.446;18.912;2022-09-27T07:06:17;42.62;;;24.95;;
48367;SDS011;34173;47.446;18.912;2022-09-27T07:08:51;41.33;;;24.10;;
48367;SDS011;34173;47.446;18.912;2022-09-27T07:11:21;38.25;;;23.92;;
48367;SDS011;34173;47.446;18.912;2022-09-27T07:13:51;42.17;;;24.90;;
48367;SDS011;34173;47.446;18.912;2022-09-27T07:16:19;38.17;;;23.58;;
48367;SDS011;34173;47.446;18.912;2022-09-27T07:18:47;42.55;;;24.00;;
48367;SDS011;34173;47.446;18.912;2022-09-27T07:21:15;37.17;;;23.83;;
48367;SDS011;34173;47.446;18.912;2022-09-27T07:23:43;36.88;;;23.27;;
48367;SDS011;34173;47.446;18.912;2022-09-27T07:26:11;36.42;;;22.27;;
48367;SDS011;34173;47.446;18.912;2022-09-27T07:28:39;33.42;;;23.17;;
48367;SDS011;34173;47.446;18.912;2022-09-27T07:31:08;31.05;;;21.17;;
48367;SDS011;34173;47.446;18.912;2022-09-27T07:33:36;31.45;;;21.37;;
48367;SDS011;34173;47.446;18.912;2022-09-27T07:36:10;29.23;;;20.10;;
48367;SDS011;34173;47.446;18.912;2022-09-27T07:38:39;30.40;;;20.90;;
48367;SDS011;34173;47.446;18.912;2022-09-27T07:41:07;30.20;;;20.42;;
48367;SDS011;34173;47.446;18.912;2022-09-27T07:43:36;28.25;;;19.95;;
48367;SDS011;34173;47.446;18.912;2022-09-27T07:46:04;31.40;;;20.80;;
48367;SDS011;34173;47.446;18.912;2022-09-27T07:48:32;30.62;;;20.95;;
48367;SDS011;34173;47.446;18.912;2022-09-27T07:51:00;28.85;;;20.30;;
48367;SDS011;34173;47.446;18.912;2022-09-27T07:53:32;29.98;;;20.48;;
48367;SDS011;34173;47.446;18.912;2022-09-27T07:56:02;33.42;;;22.23;;
48367;SDS011;34173;47.446;18.912;2022-09-27T07:58:30;30.67;;;20.17;;
48367;SDS011;34173;47.446;18.912;2022-09-27T08:00:59;25.70;;;18.33;;
48367;SDS011;34173;47.446;18.912;2022-09-27T08:03:27;26.37;;;19.00;;
48367;SDS011;34173;47.446;18.912;2022-09-27T08:05:55;28.75;;;19.17;;
48367;SDS011;34173;47.446;18.912;2022-09-27T08:08:22;31.80;;;19.83;;
48367;SDS011;34173;47.446;18.912;2022-09-27T08:10:52;27.23;;;18.85;;
48367;SDS011;34173;47.446;18.912;2022-09-27T08:13:19;29.83;;;20.37;;
48367;SDS011;34173;47.446;18.912;2022-09-27T08:15:47;29.12;;;19.23;;
48367;SDS011;34173;47.446;18.912;2022-09-27T08:18:15;30.40;;;20.58;;
48367;SDS011;34173;47.446;18.912;2022-09-27T08:20:44;31.42;;;18.65;;
48367;SDS011;34173;47.446;18.912;2022-09-27T08:23:14;28.73;;;19.77;;
48367;SDS011;34173;47.446;18.912;2022-09-27T08:25:42;27.48;;;19.45;;
48367;SDS011;34173;47.446;18.912;2022-09-27T08:28:11;27.62;;;19.52;;
48367;SDS011;34173;47.446;18.912;2022-09-27T08:30:40;27.62;;;17.90;;
48367;SDS011;34173;47.446;18.912;2022-09-27T08:33:08;24.25;;;16.92;;
48367;SDS011;34173;47.446;18.912;2022-09-27T08:35:35;26.75;;;17.27;;
48367;SDS011;34173;47.446;18.912;2022-09-27T08:38:04;24.35;;;16.98;;
48367;SDS011;34173;47.446;18.912;2022-09-27T08:48:42;27.85;;;17.92;;
48367;SDS011;34173;47.446;18.912;2022-09-27T08:51:11;24.65;;;17.37;;
48367;SDS011;34173;47.446;18.912;2022-09-27T08:53:48;28.02;;;17.62;;
48367;SDS011;34173;47.446;18.912;2022-09-27T08:56:18;28.83;;;18.52;;
48367;SDS011;34173;47.446;18.912;2022-09-27T08:58:50;25.70;;;16.70;;
48367;SDS011;34173;47.446;18.912;2022-09-27T09:01:21;23.65;;;16.58;;
48367;SDS011;34173;47.446;18.912;2022-09-27T09:03:56;29.73;;;19.35;;
48367;SDS011;34173;47.446;18.912;2022-09-27T09:06:27;28.27;;;18.33;;
48367;SDS011;34173;47.446;18.912;2022-09-27T09:09:00;27.50;;;17.92;;
48367;SDS011;34173;47.446;18.912;2022-09-27T09:34:45;26.60;;;17.02;;
48367;SDS011;34173;47.446;18.912;2022-09-27T09:37:19;26.02;;;17.62;;
48367;SDS011;34173;47.446;18.912;2022-09-27T09:39:58;25.65;;;16.67;;
48367;SDS011;34173;47.446;18.912;2022-09-27T09:42:39;24.37;;;17.13;;
48367;SDS011;34173;47.446;18.912;2022-09-27T09:45:16;23.38;;;16.73;;
48367;SDS011;34173;47.446;18.912;2022-09-27T09:47:47;28.85;;;18.17;;
48367;SDS011;34173;47.446;18.912;2022-09-27T09:50:22;21.58;;;16.40;;
48367;SDS011;34173;47.446;18.912;2022-09-27T09:52:55;23.67;;;15.95;;
48367;SDS011;34173;47.446;18.912;2022-09-27T09:55:27;23.70;;;15.40;;
48367;SDS011;34173;47.446;18.912;2022-09-27T10:00:52;23.13;;;15.47;;
48367;SDS011;34173;47.446;18.912;2022-09-27T10:03:22;22.20;;;16.15;;
48367;SDS011;34173;47.446;18.912;2022-09-27T10:05:50;24.17;;;16.90;;
48367;SDS011;34173;47.446;18.912;2022-09-27T10:08:19;24.63;;;16.80;;
48367;SDS011;34173;47.446;18.912;2022-09-27T10:10:49;23.15;;;16.62;;
48367;SDS011;34173;47.446;18.912;2022-09-27T10:13:20;22.98;;;15.85;;
48367;SDS011;34173;47.446;18.912;2022-09-27T10:15:51;26.50;;;16.95;;
48367;SDS011;34173;47.446;18.912;2022-09-27T10:18:21;22.87;;;16.33;;
48367;SDS011;34173;47.446;18.912;2022-09-27T10:20:56;24.10;;;15.55;;
48367;SDS011;34173;47.446;18.912;2022-09-27T10:23:26;23.57;;;16.43;;
48367;SDS011;34173;47.446;18.912;2022-09-27T10:25:59;24.98;;;16.05;;
48367;SDS011;34173;47.446;18.912;2022-09-27T10:28:35;27.55;;;17.30;;
48367;SDS011;34173;47.446;18.912;2022-09-27T10:33:37;23.02;;;15.40;;
48367;SDS011;34173;47.446;18.912;2022-09-27T10:36:21;22.55;;;15.50;;
48367;SDS011;34173;47.446;18.912;2022-09-27T10:39:00;22.77;;;16.37;;
48367;SDS011;34173;47.446;18.912;2022-09-27T10:41:32;21.35;;;15.52;;
48367;SDS011;34173;47.446;18.912;2022-09-27T10:46:43;22.52;;;15.18;;
48367;SDS011;34173;47.446;18.912;2022-09-27T10:51:50;22.42;;;15.15;;
48367;SDS011;34173;47.446;18.912;2022-09-27T10:54:25;24.35;;;15.98;;
48367;SDS011;34173;47.446;18.912;2022-09-27T10:57:40;23.27;;;16.02;;
48367;SDS011;34173;47.446;18.912;2022-09-27T10:59:59;21.48;;;15.70;;
48367;SDS011;34173;47.446;18.912;2022-09-27T11:02:37;20.45;;;14.20;;
48367;SDS011;34173;47.446;18.912;2022-09-27T11:05:14;20.52;;;14.00;;
48367;SDS011;34173;47.446;18.912;2022-09-27T11:07:58;20.37;;;13.62;;
48367;SDS011;34173;47.446;18.912;2022-09-27T11:10:34;19.70;;;12.70;;
48367;SDS011;34173;47.446;18.912;2022-09-27T11:13:09;18.20;;;12.15;;
48367;SDS011;34173;47.446;18.912;2022-09-27T11:21:37;16.15;;;11.80;;
48367;SDS011;34173;47.446;18.912;2022-09-27T11:36:31;15.48;;;10.93;;
48367;SDS011;34173;47.446;18.912;2022-09-27T11:45:02;14.38;;;10.90;;
48367;SDS011;34173;47.446;18.912;2022-09-27T11:48:06;15.98;;;11.23;;
48367;SDS011;34173;47.446;18.912;2022-09-27T11:50:46;15.02;;;10.50;;
48367;SDS011;34173;47.446;18.912;2022-09-27T11:53:27;15.55;;;10.32;;
48367;SDS011;34173;47.446;18.912;2022-09-27T12:01:35;15.73;;;9.93;;
48367;SDS011;34173;47.446;18.912;2022-09-27T12:04:20;13.13;;;9.02;;
48367;SDS011;34173;47.446;18.912;2022-09-27T12:09:44;13.80;;;9.15;;
48367;SDS011;34173;47.446;18.912;2022-09-27T12:12:23;12.90;;;9.00;;
48367;SDS011;34173;47.446;18.912;2022-09-27T12:14:58;13.52;;;8.98;;
48367;SDS011;34173;47.446;18.912;2022-09-27T12:17:38;13.82;;;9.15;;
48367;SDS011;34173;47.446;18.912;2022-09-27T12:20:20;16.12;;;8.88;;
48367;SDS011;34173;47.446;18.912;2022-09-27T12:22:57;15.27;;;9.95;;
48367;SDS011;34173;47.446;18.912;2022-09-27T12:25:31;14.25;;;10.32;;
48367;SDS011;34173;47.446;18.912;2022-09-27T12:31:00;14.35;;;10.38;;
48367;SDS011;34173;47.446;18.912;2022-09-27T12:37:02;16.83;;;10.45;;
48367;SDS011;34173;47.446;18.912;2022-09-27T12:43:01;16.12;;;10.48;;
48367;SDS011;34173;47.446;18.912;2022-09-27T12:45:40;15.88;;;10.15;;
48367;SDS011;34173;47.446;18.912;2022-09-27T12:51:09;13.60;;;8.93;;
48367;SDS011;34173;47.446;18.912;2022-09-27T12:56:19;11.70;;;8.00;;
48367;SDS011;34173;47.446;18.912;2022-09-27T13:01:59;15.23;;;8.77;;
48367;SDS011;34173;47.446;18.912;2022-09-27T13:13:24;14.82;;;9.55;;
48367;SDS011;34173;47.446;18.912;2022-09-27T13:15:58;13.05;;;8.75;;
48367;SDS011;34173;47.446;18.912;2022-09-27T13:21:05;12.88;;;9.30;;
48367;SDS011;34173;47.446;18.912;2022-09-27T13:31:14;13.90;;;9.15;;
48367;SDS011;34173;47.446;18.912;2022-09-27T13:33:46;14.05;;;8.52;;
48367;SDS011;34173;47.446;18.912;2022-09-27T13:36:23;16.70;;;9.05;;
48367;SDS011;34173;47.446;18.912;2022-09-27T13:41:41;12.93;;;8.18;;
48367;SDS011;34173;47.446;18.912;2022-09-27T13:44:32;11.18;;;6.72;;
48367;SDS011;34173;47.446;18.912;2022-09-27T13:50:00;13.65;;;7.80;;
48367;SDS011;34173;47.446;18.912;2022-09-27T13:52:41;13.10;;;8.23;;
48367;SDS011;34173;47.446;18.912;2022-09-27T13:58:22;5.18;;;1.70;;
48367;SDS011;34173;47.446;18.912;2022-09-27T14:01:02;3.62;;;1.00;;
48367;SDS011;34173;47.446;18.912;2022-09-27T14:03:37;7.12;;;1.25;;
48367;SDS011;34173;47.446;18.912;2022-09-27T14:06:11;1.98;;;0.62;;
48367;SDS011;34173;47.446;18.912;2022-09-27T14:08:43;6.55;;;1.05;;
48367;SDS011;34173;47.446;18.912;2022-09-27T14:11:14;5.15;;;1.15;;
48367;SDS011;34173;47.446;18.912;2022-09-27T14:13:48;3.85;;;0.70;;
48367;SDS011;34173;47.446;18.912;2022-09-27T14:16:16;2.08;;;0.50;;
48367;SDS011;34173;47.446;18.912;2022-09-27T14:18:55;4.25;;;0.90;;
48367;SDS011;34173;47.446;18.912;2022-09-27T14:21:34;4.03;;;0.82;;
48367;SDS011;34173;47.446;18.912;2022-09-27T14:24:21;5.05;;;0.90;;
48367;SDS011;34173;47.446;18.912;2022-09-27T14:27:02;3.05;;;1.05;;
48367;SDS011;34173;47.446;18.912;2022-09-27T14:29:32;4.80;;;1.12;;
48367;SDS011;34173;47.446;18.912;2022-09-27T14:32:05;2.90;;;0.93;;
48367;SDS011;34173;47.446;18.912;2022-09-27T14:34:36;3.42;;;0.93;;
48367;SDS011;34173;47.446;18.912;2022-09-27T14:37:13;4.25;;;1.62;;
48367;SDS011;34173;47.446;18.912;2022-09-27T14:39:53;4.53;;;1.10;;
48367;SDS011;34173;47.446;18.912;2022-09-27T14:42:25;5.25;;;1.37;;
48367;SDS011;34173;47.446;18.912;2022-09-27T14:44:57;3.65;;;1.05;;
48367;SDS011;34173;47.446;18.912;2022-09-27T14:47:27;5.05;;;1.30;;
48367;SDS011;34173;47.446;18.912;2022-09-27T14:50:12;2.85;;;1.02;;
48367;SDS011;34173;47.446;18.912;2022-09-27T14:52:45;3.15;;;1.10;;
48367;SDS011;34173;47.446;18.912;2022-09-27T14:55:16;6.47;;;1.20;;
48367;SDS011;34173;47.446;18.912;2022-09-27T14:57:46;4.87;;;0.93;;
48367;SDS011;34173;47.446;18.912;2022-09-27T15:00:20;3.10;;;0.85;;
48367;SDS011;34173;47.446;18.912;2022-09-27T15:02:54;3.20;;;1.35;;
48367;SDS011;34173;47.446;18.912;2022-09-27T15:05:24;1.35;;;0.70;;
48367;SDS011;34173;47.446;18.912;2022-09-27T15:07:53;1.58;;;0.60;;
48367;SDS011;34173;47.446;18.912;2022-09-27T15:10:25;1.75;;;0.70;;
48367;SDS011;34173;47.446;18.912;2022-09-27T15:12:56;2.47;;;0.80;;
48367;SDS011;34173;47.446;18.912;2022-09-27T15:15:27;3.33;;;0.70;;
48367;SDS011;34173;47.446;18.912;2022-09-27T15:18:00;1.53;;;0.60;;
48367;SDS011;34173;47.446;18.912;2022-09-27T15:20:30;2.25;;;0.60;;
48367;SDS011;34173;47.446;18.912;2022-09-27T15:23:03;2.00;;;0.80;;
48367;SDS011;34173;47.446;18.912;2022-09-27T15:28:17;2.42;;;0.88;;
48367;SDS011;34173;47.446;18.912;2022-09-27T15:30:49;2.42;;;0.90;;
48367;SDS011;34173;47.446;18.912;2022-09-27T15:35:52;5.05;;;1.00;;
48367;SDS011;34173;47.446;18.912;2022-09-27T15:41:00;2.92;;;0.90;;
48367;SDS011;34173;47.446;18.912;2022-09-27T15:43:32;6.93;;;1.60;;
48367;SDS011;34173;47.446;18.912;2022-09-27T15:51:54;3.55;;;1.20;;
48367;SDS011;34173;47.446;18.912;2022-09-27T15:54:24;3.28;;;1.23;;
48367;SDS011;34173;47.446;18.912;2022-09-27T15:57:02;3.62;;;1.12;;
48367;SDS011;34173;47.446;18.912;2022-09-27T15:59:32;2.67;;;1.15;;
48367;SDS011;34173;47.446;18.912;2022-09-27T16:02:02;3.50;;;1.20;;
48367;SDS011;34173;47.446;18.912;2022-09-27T16:04:34;2.75;;;1.20;;
48367;SDS011;34173;47.446;18.912;2022-09-27T16:07:03;4.35;;;1.67;;
48367;SDS011;34173;47.446;18.912;2022-09-27T16:09:31;2.67;;;1.00;;
48367;SDS011;34173;47.446;18.912;2022-09-27T16:11:59;3.08;;;1.08;;
48367;SDS011;34173;47.446;18.912;2022-09-27T16:14:27;3.83;;;1.37;;
48367;SDS011;34173;47.446;18.912;2022-09-27T16:16:54;4.62;;;1.48;;
48367;SDS011;34173;47.446;18.912;2022-09-27T16:19:25;3.90;;;1.05;;
48367;SDS011;34173;47.446;18.912;2022-09-27T16:21:53;3.12;;;1.30;;
48367;SDS011;34173;47.446;18.912;2022-09-27T16:24:20;4.30;;;1.50;;
48367;SDS011;34173;47.446;18.912;2022-09-27T16:26:50;4.03;;;2.00;;
48367;SDS011;34173;47.446;18.912;2022-09-27T16:29:17;3.45;;;1.40;;
48367;SDS011;34173;47.446;18.912;2022-09-27T16:31:45;4.28;;;2.28;;
48367;SDS011;34173;47.446;18.912;2022-09-27T16:34:13;3.15;;;1.50;;
48367;SDS011;34173;47.446;18.912;2022-09-27T16:36:41;3.50;;;1.55;;
48367;SDS011;34173;47.446;18.912;2022-09-27T16:39:10;4.85;;;1.65;;
48367;SDS011;34173;47.446;18.912;2022-09-27T16:41:39;4.10;;;1.58;;
48367;SDS011;34173;47.446;18.912;2022-09-27T16:44:08;4.55;;;1.70;;
48367;SDS011;34173;47.446;18.912;2022-09-27T16:46:41;3.67;;;1.62;;
48367;SDS011;34173;47.446;18.912;2022-09-27T16:49:09;3.97;;;1.80;;
48367;SDS011;34173;47.446;18.912;2022-09-27T16:51:57;3.85;;;1.83;;
48367;SDS011;34173;47.446;18.912;2022-09-27T16:54:28;4.40;;;1.87;;
48367;SDS011;34173;47.446;18.912;2022-09-27T16:56:57;4.97;;;2.12;;
48367;SDS011;34173;47.446;18.912;2022-09-27T16:59:25;4.95;;;1.90;;
48367;SDS011;34173;47.446;18.912;2022-09-27T17:01:54;7.07;;;2.40;;
48367;SDS011;34173;47.446;18.912;2022-09-27T17:04:25;3.47;;;1.87;;
48367;SDS011;34173;47.446;18.912;2022-09-27T17:06:54;7.15;;;2.60;;
48367;SDS011;34173;47.446;18.912;2022-09-27T17:09:22;8.25;;;3.05;;
48367;SDS011;34173;47.446;18.912;2022-09-27T17:11:50;6.80;;;3.22;;
48367;SDS011;34173;47.446;18.912;2022-09-27T17:14:18;8.85;;;4.00;;
48367;SDS011;34173;47.446;18.912;2022-09-27T17:16:45;7.05;;;3.20;;
48367;SDS011;34173;47.446;18.912;2022-09-27T17:19:14;6.57;;;3.10;;
48367;SDS011;34173;47.446;18.912;2022-09-27T17:21:43;7.12;;;4.20;;
48367;SDS011;34173;47.446;18.912;2022-09-27T17:24:11;6.85;;;3.50;;
48367;SDS011;34173;47.446;18.912;2022-09-27T17:26:39;5.68;;;3.12;;
48367;SDS011;34173;47.446;18.912;2022-09-27T17:29:08;5.05;;;2.53;;
48367;SDS011;34173;47.446;18.912;2022-09-27T17:31:37;4.62;;;2.37;;
48367;SDS011;34173;47.446;18.912;2022-09-27T17:34:07;4.82;;;2.05;;
48367;SDS011;34173;47.446;18.912;2022-09-27T17:36:39;5.22;;;2.20;;
48367;SDS011;34173;47.446;18.912;2022-09-27T17:39:12;4.70;;;2.20;;